CSZ205 ZGSZ-RPLL
Flight info
| Callsign | CSZ205 |
|---|---|
| Flight time | 1h 46m |
| Altitude | 33100 |
| Route | NLG W18 TAMOT B330 BIGEX A416 AVMUP W16 TADEL |
| Aircraft | A321/M-SDE1FGHILORVWXY/HB1 |
Departure
| Time | 2026-04-23 11:26 |
|---|---|
| Airport | Shenzhen Bao'an International Airport (ZGSZ) |
Arrival
| Time | 2026-04-23 13:13 |
|---|---|
| Airport | Ninoy Aquino International Airport (RPLL) |
| Time | Latitude | Longitude | Altitude | Speed | Heading |
|---|---|---|---|---|---|
| 2026-04-23 11:16 | 22.63332 | 113.80827 | 22 ft | 0 kts | 334° |
| 2026-04-23 11:20 | 22.63320 | 113.80834 | 22 ft | 2 kts | 333° |
| 2026-04-23 11:20 | 22.63306 | 113.80841 | 22 ft | 2 kts | 334° |
| 2026-04-23 11:21 | 22.63293 | 113.80848 | 22 ft | 2 kts | 333° |
| 2026-04-23 11:21 | 22.63279 | 113.80852 | 22 ft | 2 kts | 11° |
| 2026-04-23 11:21 | 22.63265 | 113.80845 | 22 ft | 2 kts | 48° |
| 2026-04-23 11:21 | 22.63260 | 113.80838 | 22 ft | 1 kts | 67° |
| 2026-04-23 11:22 | 22.63259 | 113.80834 | 22 ft | 0 kts | 62° |
| 2026-04-23 11:23 | 22.63262 | 113.80840 | 22 ft | 8 kts | 62° |
| 2026-04-23 11:23 | 22.63333 | 113.80990 | 22 ft | 27 kts | 69° |
| 2026-04-23 11:24 | 22.63238 | 113.81124 | 22 ft | 25 kts | 154° |
| 2026-04-23 11:24 | 22.63083 | 113.81196 | 22 ft | 24 kts | 159° |
| 2026-04-23 11:24 | 22.62943 | 113.81281 | 22 ft | 23 kts | 148° |
| 2026-04-23 11:24 | 22.62809 | 113.81362 | 22 ft | 22 kts | 155° |
| 2026-04-23 11:25 | 22.62675 | 113.81429 | 22 ft | 22 kts | 153° |
| 2026-04-23 11:25 | 22.62577 | 113.81551 | 22 ft | 19 kts | 61° |
| 2026-04-23 11:25 | 22.62637 | 113.81665 | 22 ft | 21 kts | 73° |
| 2026-04-23 11:25 | 22.62720 | 113.81709 | 22 ft | 15 kts | 336° |
| 2026-04-23 11:26 | 22.62976 | 113.81584 | 22 ft | 77 kts | 333° |
| 2026-04-23 11:26 | 22.63612 | 113.81246 | 23 ft | 141 kts | 332° |
| 2026-04-23 11:26 | 22.64615 | 113.80694 | 284 ft | 172 kts | 333° |
| 2026-04-23 11:26 | 22.65602 | 113.80139 | 1004 ft | 174 kts | 331° |
| 2026-04-23 11:27 | 22.66658 | 113.79535 | 1484 ft | 179 kts | 332° |
| 2026-04-23 11:27 | 22.67639 | 113.78955 | 2212 ft | 167 kts | 330° |
| 2026-04-23 11:27 | 22.68683 | 113.78320 | 2531 ft | 180 kts | 331° |
| 2026-04-23 11:27 | 22.69822 | 113.77643 | 2829 ft | 195 kts | 331° |
| 2026-04-23 11:28 | 22.71072 | 113.76911 | 3161 ft | 212 kts | 332° |
| 2026-04-23 11:28 | 22.72405 | 113.76108 | 3487 ft | 231 kts | 324° |
| 2026-04-23 11:28 | 22.73340 | 113.74996 | 3844 ft | 242 kts | 297° |
| 2026-04-23 11:28 | 22.73691 | 113.73271 | 4444 ft | 248 kts | 266° |
| 2026-04-23 11:29 | 22.73185 | 113.71561 | 5201 ft | 250 kts | 244° |
| 2026-04-23 11:29 | 22.72318 | 113.69847 | 5946 ft | 253 kts | 242° |
| 2026-04-23 11:29 | 22.71339 | 113.68312 | 6490 ft | 264 kts | 225° |
| 2026-04-23 11:29 | 22.69767 | 113.67144 | 6897 ft | 281 kts | 212° |
| 2026-04-23 11:30 | 22.68068 | 113.66097 | 7544 ft | 286 kts | 212° |
| 2026-04-23 11:30 | 22.66334 | 113.64996 | 8293 ft | 288 kts | 213° |
| 2026-04-23 11:30 | 22.64606 | 113.63860 | 8999 ft | 290 kts | 213° |
| 2026-04-23 11:30 | 22.63153 | 113.62891 | 9486 ft | 294 kts | 213° |
| 2026-04-23 11:31 | 22.61265 | 113.61621 | 9906 ft | 299 kts | 213° |
| 2026-04-23 11:31 | 22.59535 | 113.60455 | 10516 ft | 303 kts | 213° |
| 2026-04-23 11:31 | 22.57764 | 113.59304 | 10802 ft | 319 kts | 207° |
| 2026-04-23 11:31 | 22.55546 | 113.58640 | 11071 ft | 338 kts | 185° |
| 2026-04-23 11:32 | 22.53129 | 113.58959 | 11340 ft | 355 kts | 161° |
| 2026-04-23 11:32 | 22.50960 | 113.60299 | 11599 ft | 371 kts | 138° |
| 2026-04-23 11:32 | 22.49346 | 113.62549 | 11889 ft | 384 kts | 121° |
| 2026-04-23 11:32 | 22.47940 | 113.65111 | 12160 ft | 399 kts | 120° |
| 2026-04-23 11:33 | 22.46546 | 113.67659 | 12564 ft | 409 kts | 120° |
| 2026-04-23 11:33 | 22.45092 | 113.70280 | 13212 ft | 411 kts | 121° |
| 2026-04-23 11:33 | 22.43604 | 113.72931 | 13853 ft | 414 kts | 121° |
| 2026-04-23 11:33 | 22.42106 | 113.75577 | 14437 ft | 418 kts | 121° |
| 2026-04-23 11:34 | 22.40567 | 113.78284 | 14818 ft | 421 kts | 121° |
| 2026-04-23 11:34 | 22.39040 | 113.80963 | 14874 ft | 421 kts | 121° |
| 2026-04-23 11:34 | 22.37597 | 113.83474 | 14882 ft | 421 kts | 122° |
| 2026-04-23 11:34 | 22.35857 | 113.86195 | 15035 ft | 427 kts | 126° |
| 2026-04-23 11:35 | 22.33992 | 113.88726 | 15658 ft | 429 kts | 130° |
| 2026-04-23 11:35 | 22.32017 | 113.91116 | 16313 ft | 429 kts | 132° |
| 2026-04-23 11:35 | 22.30005 | 113.93486 | 16846 ft | 433 kts | 132° |
| 2026-04-23 11:35 | 22.28089 | 113.95732 | 17325 ft | 436 kts | 132° |
| 2026-04-23 11:36 | 22.25965 | 113.98223 | 17856 ft | 439 kts | 132° |
| 2026-04-23 11:36 | 22.23871 | 114.00682 | 18365 ft | 442 kts | 132° |
| 2026-04-23 11:36 | 22.21765 | 114.03159 | 18858 ft | 445 kts | 131° |
| 2026-04-23 11:36 | 22.19669 | 114.05679 | 19342 ft | 448 kts | 131° |
| 2026-04-23 11:37 | 22.17582 | 114.08222 | 19811 ft | 451 kts | 131° |
| 2026-04-23 11:37 | 22.15488 | 114.10779 | 20268 ft | 454 kts | 130° |
| 2026-04-23 11:37 | 22.13365 | 114.13372 | 20712 ft | 457 kts | 130° |
| 2026-04-23 11:37 | 22.11249 | 114.15952 | 21142 ft | 460 kts | 130° |
| 2026-04-23 11:38 | 22.09124 | 114.18540 | 21561 ft | 462 kts | 130° |
| 2026-04-23 11:38 | 22.06981 | 114.21148 | 21971 ft | 465 kts | 130° |
| 2026-04-23 11:38 | 22.04834 | 114.23758 | 22368 ft | 467 kts | 130° |
| 2026-04-23 11:38 | 22.02683 | 114.26372 | 22755 ft | 470 kts | 130° |
| 2026-04-23 11:39 | 22.00521 | 114.28997 | 23133 ft | 472 kts | 130° |
| 2026-04-23 11:39 | 21.98331 | 114.31655 | 23503 ft | 475 kts | 130° |
| 2026-04-23 11:39 | 21.96144 | 114.34307 | 23867 ft | 477 kts | 130° |
| 2026-04-23 11:39 | 21.93948 | 114.36970 | 24215 ft | 479 kts | 130° |
| 2026-04-23 11:40 | 21.91740 | 114.39645 | 24555 ft | 482 kts | 130° |
| 2026-04-23 11:40 | 21.89519 | 114.42334 | 24947 ft | 482 kts | 130° |
| 2026-04-23 11:40 | 21.87300 | 114.45004 | 25439 ft | 480 kts | 130° |
| 2026-04-23 11:40 | 21.85085 | 114.47662 | 25925 ft | 478 kts | 130° |
| 2026-04-23 11:41 | 21.82858 | 114.50339 | 26375 ft | 477 kts | 130° |
| 2026-04-23 11:41 | 21.80662 | 114.52983 | 26795 ft | 476 kts | 130° |
| 2026-04-23 11:41 | 21.78469 | 114.55626 | 27206 ft | 475 kts | 130° |
| 2026-04-23 11:41 | 21.76284 | 114.58260 | 27609 ft | 474 kts | 130° |
| 2026-04-23 11:42 | 21.74101 | 114.60893 | 28004 ft | 473 kts | 130° |
| 2026-04-23 11:42 | 21.71924 | 114.63519 | 28388 ft | 472 kts | 130° |
| 2026-04-23 11:42 | 21.69753 | 114.66137 | 28761 ft | 471 kts | 130° |
| 2026-04-23 11:42 | 21.67574 | 114.68778 | 29127 ft | 471 kts | 130° |
| 2026-04-23 11:43 | 21.65418 | 114.71390 | 29480 ft | 470 kts | 130° |
| 2026-04-23 11:43 | 21.63261 | 114.73998 | 29824 ft | 469 kts | 130° |
| 2026-04-23 11:43 | 21.61098 | 114.76608 | 30161 ft | 468 kts | 130° |
| 2026-04-23 11:43 | 21.58946 | 114.79200 | 30487 ft | 467 kts | 130° |
| 2026-04-23 11:44 | 21.58225 | 114.80068 | 30593 ft | 467 kts | 130° |
| 2026-04-23 11:44 | 21.54650 | 114.84368 | 31109 ft | 465 kts | 130° |
| 2026-04-23 11:44 | 21.52492 | 114.86960 | 31412 ft | 465 kts | 130° |
| 2026-04-23 11:44 | 21.50352 | 114.89528 | 31706 ft | 464 kts | 130° |
| 2026-04-23 11:45 | 21.48212 | 114.92097 | 31994 ft | 463 kts | 130° |
| 2026-04-23 11:45 | 21.46078 | 114.94657 | 32274 ft | 462 kts | 130° |
| 2026-04-23 11:45 | 21.43944 | 114.97214 | 32546 ft | 462 kts | 130° |
| 2026-04-23 11:45 | 21.41816 | 114.99764 | 32824 ft | 461 kts | 130° |
| 2026-04-23 11:46 | 21.39689 | 115.02312 | 32869 ft | 459 kts | 130° |
| 2026-04-23 11:46 | 21.35439 | 115.07399 | 32885 ft | 457 kts | 130° |
| 2026-04-23 11:47 | 21.31224 | 115.12441 | 32886 ft | 455 kts | 130° |
| 2026-04-23 11:47 | 21.27024 | 115.17459 | 32886 ft | 454 kts | 130° |
| 2026-04-23 11:48 | 21.22821 | 115.22477 | 32886 ft | 452 kts | 130° |
| 2026-04-23 11:48 | 21.18638 | 115.27465 | 32886 ft | 452 kts | 130° |
| 2026-04-23 11:49 | 21.14450 | 115.32453 | 32886 ft | 452 kts | 130° |
| 2026-04-23 11:49 | 21.10263 | 115.37436 | 32885 ft | 452 kts | 130° |
| 2026-04-23 11:50 | 21.06058 | 115.42438 | 32885 ft | 453 kts | 130° |
| 2026-04-23 11:50 | 21.01855 | 115.47432 | 32885 ft | 454 kts | 130° |
| 2026-04-23 11:51 | 20.97638 | 115.52438 | 32885 ft | 454 kts | 131° |
| 2026-04-23 11:51 | 20.93407 | 115.57455 | 32886 ft | 454 kts | 131° |
| 2026-04-23 11:52 | 20.89192 | 115.62445 | 32885 ft | 454 kts | 131° |
| 2026-04-23 11:52 | 20.84954 | 115.67434 | 32886 ft | 454 kts | 131° |
| 2026-04-23 11:53 | 20.80738 | 115.72426 | 32886 ft | 454 kts | 131° |
| 2026-04-23 11:53 | 20.76506 | 115.77431 | 32886 ft | 454 kts | 131° |
| 2026-04-23 11:54 | 20.72288 | 115.82413 | 32886 ft | 454 kts | 131° |
| 2026-04-23 11:54 | 20.68067 | 115.87392 | 32886 ft | 454 kts | 131° |
| 2026-04-23 11:55 | 20.63823 | 115.92394 | 32886 ft | 454 kts | 131° |
| 2026-04-23 11:55 | 20.59599 | 115.97367 | 32886 ft | 454 kts | 131° |
| 2026-04-23 11:56 | 20.55372 | 116.02339 | 32886 ft | 454 kts | 131° |
| 2026-04-23 11:56 | 20.51136 | 116.07317 | 32886 ft | 454 kts | 131° |
| 2026-04-23 11:57 | 20.46872 | 116.12325 | 32886 ft | 454 kts | 131° |
| 2026-04-23 11:57 | 20.42625 | 116.17307 | 32886 ft | 454 kts | 131° |
| 2026-04-23 11:58 | 20.38374 | 116.22290 | 32884 ft | 454 kts | 131° |
| 2026-04-23 11:58 | 20.34125 | 116.27266 | 32882 ft | 454 kts | 131° |
| 2026-04-23 11:59 | 20.29878 | 116.32237 | 32883 ft | 455 kts | 131° |
| 2026-04-23 11:59 | 20.25629 | 116.37205 | 32884 ft | 454 kts | 131° |
| 2026-04-23 12:00 | 20.21383 | 116.42165 | 32884 ft | 454 kts | 131° |
| 2026-04-23 12:00 | 20.17130 | 116.47131 | 32882 ft | 454 kts | 131° |
| 2026-04-23 12:01 | 20.12883 | 116.52086 | 32878 ft | 454 kts | 131° |
| 2026-04-23 12:01 | 20.08644 | 116.57029 | 32872 ft | 454 kts | 131° |
| 2026-04-23 12:02 | 20.04390 | 116.61988 | 32867 ft | 454 kts | 131° |
| 2026-04-23 12:02 | 20.00146 | 116.66931 | 32861 ft | 454 kts | 131° |
| 2026-04-23 12:03 | 19.95904 | 116.71873 | 32859 ft | 455 kts | 131° |
| 2026-04-23 12:03 | 19.91656 | 116.76807 | 32861 ft | 455 kts | 131° |
| 2026-04-23 12:04 | 19.87377 | 116.81755 | 32862 ft | 455 kts | 131° |
| 2026-04-23 12:04 | 19.83114 | 116.86664 | 32862 ft | 455 kts | 131° |
| 2026-04-23 12:05 | 19.78859 | 116.91575 | 32861 ft | 453 kts | 131° |
| 2026-04-23 12:05 | 19.74620 | 116.96473 | 32862 ft | 449 kts | 131° |
| 2026-04-23 12:06 | 19.70436 | 117.01311 | 32869 ft | 445 kts | 131° |
| 2026-04-23 12:06 | 19.64236 | 117.08478 | 32888 ft | 439 kts | 132° |
| 2026-04-23 12:07 | 19.60125 | 117.13225 | 32900 ft | 436 kts | 133° |
| 2026-04-23 12:07 | 19.56040 | 117.17926 | 32893 ft | 435 kts | 133° |
| 2026-04-23 12:08 | 19.51959 | 117.22621 | 32886 ft | 436 kts | 133° |
| 2026-04-23 12:08 | 19.47873 | 117.27320 | 32883 ft | 436 kts | 133° |
| 2026-04-23 12:09 | 19.43774 | 117.32033 | 32882 ft | 436 kts | 133° |
| 2026-04-23 12:09 | 19.39699 | 117.36714 | 32882 ft | 436 kts | 133° |
| 2026-04-23 12:10 | 19.35613 | 117.41405 | 32882 ft | 436 kts | 133° |
| 2026-04-23 12:10 | 19.31510 | 117.46112 | 32882 ft | 436 kts | 133° |
| 2026-04-23 12:11 | 19.27423 | 117.50797 | 32882 ft | 436 kts | 133° |
| 2026-04-23 12:11 | 19.23331 | 117.55485 | 32882 ft | 436 kts | 133° |
| 2026-04-23 12:12 | 19.19213 | 117.60200 | 32882 ft | 436 kts | 133° |
| 2026-04-23 12:12 | 19.15082 | 117.64927 | 32882 ft | 436 kts | 133° |
| 2026-04-23 12:13 | 19.11042 | 117.69569 | 32882 ft | 436 kts | 133° |
| 2026-04-23 12:13 | 19.06944 | 117.74266 | 32882 ft | 436 kts | 133° |
| 2026-04-23 12:14 | 19.02809 | 117.78984 | 32882 ft | 436 kts | 133° |
| 2026-04-23 12:14 | 18.98677 | 117.83684 | 32881 ft | 437 kts | 133° |
| 2026-04-23 12:15 | 18.94542 | 117.88388 | 32881 ft | 439 kts | 133° |
| 2026-04-23 12:15 | 18.90380 | 117.93123 | 32881 ft | 441 kts | 133° |
| 2026-04-23 12:16 | 18.86165 | 117.97891 | 32882 ft | 443 kts | 133° |
| 2026-04-23 12:16 | 18.81948 | 118.02659 | 32882 ft | 443 kts | 132° |
| 2026-04-23 12:17 | 18.77739 | 118.07428 | 32882 ft | 443 kts | 132° |
| 2026-04-23 12:17 | 18.73534 | 118.12196 | 32882 ft | 443 kts | 132° |
| 2026-04-23 12:18 | 18.69421 | 118.16856 | 32882 ft | 443 kts | 132° |
| 2026-04-23 12:18 | 18.65250 | 118.21579 | 32882 ft | 443 kts | 132° |
| 2026-04-23 12:19 | 18.61069 | 118.26312 | 32882 ft | 443 kts | 132° |
| 2026-04-23 12:19 | 18.56875 | 118.31056 | 32882 ft | 443 kts | 132° |
| 2026-04-23 12:20 | 18.52692 | 118.35782 | 32882 ft | 443 kts | 132° |
| 2026-04-23 12:20 | 18.48508 | 118.40507 | 32882 ft | 443 kts | 132° |
| 2026-04-23 12:21 | 18.44317 | 118.45236 | 32882 ft | 443 kts | 132° |
| 2026-04-23 12:21 | 18.40121 | 118.49967 | 32882 ft | 443 kts | 132° |
| 2026-04-23 12:22 | 18.35923 | 118.54697 | 32882 ft | 443 kts | 132° |
| 2026-04-23 12:22 | 18.31734 | 118.59414 | 32882 ft | 443 kts | 132° |
| 2026-04-23 12:23 | 18.27531 | 118.64143 | 32882 ft | 443 kts | 132° |
| 2026-04-23 12:23 | 18.23340 | 118.68874 | 32882 ft | 443 kts | 133° |
| 2026-04-23 12:24 | 18.19145 | 118.73608 | 32882 ft | 443 kts | 133° |
| 2026-04-23 12:24 | 18.14942 | 118.78333 | 32882 ft | 443 kts | 133° |
| 2026-04-23 12:25 | 18.10750 | 118.83036 | 32882 ft | 443 kts | 133° |
| 2026-04-23 12:25 | 18.06563 | 118.87728 | 32884 ft | 442 kts | 132° |
| 2026-04-23 12:26 | 18.02253 | 118.92267 | 32900 ft | 441 kts | 137° |
| 2026-04-23 12:26 | 17.97547 | 118.96299 | 32908 ft | 441 kts | 142° |
| 2026-04-23 12:27 | 17.92369 | 118.99842 | 32911 ft | 442 kts | 148° |
| 2026-04-23 12:27 | 17.87014 | 119.02957 | 32911 ft | 442 kts | 149° |
| 2026-04-23 12:28 | 17.81634 | 119.06053 | 32910 ft | 441 kts | 149° |
| 2026-04-23 12:28 | 17.76285 | 119.09143 | 32910 ft | 441 kts | 149° |
| 2026-04-23 12:29 | 17.71035 | 119.12179 | 32910 ft | 441 kts | 148° |
| 2026-04-23 12:29 | 17.65671 | 119.15282 | 32910 ft | 441 kts | 148° |
| 2026-04-23 12:30 | 17.60306 | 119.18383 | 32910 ft | 441 kts | 148° |
| 2026-04-23 12:30 | 17.55155 | 119.21359 | 32910 ft | 441 kts | 148° |
| 2026-04-23 12:31 | 17.49732 | 119.24490 | 32910 ft | 441 kts | 148° |
| 2026-04-23 12:31 | 17.44348 | 119.27596 | 32910 ft | 441 kts | 148° |
| 2026-04-23 12:32 | 17.38970 | 119.30697 | 32910 ft | 441 kts | 148° |
| 2026-04-23 12:32 | 17.33596 | 119.33794 | 32910 ft | 441 kts | 148° |
| 2026-04-23 12:33 | 17.28201 | 119.36900 | 32910 ft | 441 kts | 148° |
| 2026-04-23 12:33 | 17.22852 | 119.39978 | 32910 ft | 441 kts | 148° |
| 2026-04-23 12:34 | 17.17573 | 119.43014 | 32910 ft | 441 kts | 148° |
| 2026-04-23 12:34 | 17.12156 | 119.46128 | 32910 ft | 441 kts | 148° |
| 2026-04-23 12:35 | 17.06737 | 119.49240 | 32910 ft | 442 kts | 149° |
| 2026-04-23 12:35 | 17.01324 | 119.52347 | 32910 ft | 444 kts | 149° |
| 2026-04-23 12:36 | 16.95993 | 119.55405 | 32910 ft | 445 kts | 149° |
| 2026-04-23 12:36 | 16.90585 | 119.58504 | 32910 ft | 446 kts | 149° |
| 2026-04-23 12:37 | 16.85139 | 119.61608 | 32910 ft | 446 kts | 149° |
| 2026-04-23 12:37 | 16.79711 | 119.64701 | 32910 ft | 446 kts | 149° |
| 2026-04-23 12:38 | 16.74281 | 119.67822 | 32910 ft | 446 kts | 149° |
| 2026-04-23 12:38 | 16.68837 | 119.70955 | 32910 ft | 446 kts | 149° |
| 2026-04-23 12:39 | 16.63419 | 119.74058 | 32767 ft | 446 kts | 149° |
| 2026-04-23 12:39 | 16.60699 | 119.75613 | 32618 ft | 447 kts | 149° |
| 2026-04-23 12:39 | 16.57981 | 119.77165 | 32468 ft | 448 kts | 149° |
| 2026-04-23 12:40 | 16.55265 | 119.78715 | 32319 ft | 448 kts | 149° |
| 2026-04-23 12:40 | 16.52542 | 119.80268 | 32170 ft | 449 kts | 149° |
| 2026-04-23 12:40 | 16.49803 | 119.81830 | 32020 ft | 450 kts | 149° |
| 2026-04-23 12:40 | 16.47060 | 119.83394 | 31870 ft | 450 kts | 149° |
| 2026-04-23 12:41 | 16.44315 | 119.84958 | 31720 ft | 451 kts | 149° |
| 2026-04-23 12:41 | 16.41558 | 119.86529 | 31570 ft | 452 kts | 149° |
| 2026-04-23 12:41 | 16.38813 | 119.88092 | 31420 ft | 452 kts | 149° |
| 2026-04-23 12:41 | 16.36062 | 119.89658 | 31271 ft | 453 kts | 149° |
| 2026-04-23 12:42 | 16.33304 | 119.91228 | 31121 ft | 454 kts | 149° |
| 2026-04-23 12:42 | 16.30524 | 119.92810 | 30969 ft | 454 kts | 149° |
| 2026-04-23 12:42 | 16.27773 | 119.94375 | 30805 ft | 455 kts | 149° |
| 2026-04-23 12:42 | 16.24995 | 119.95955 | 30605 ft | 456 kts | 149° |
| 2026-04-23 12:43 | 16.22213 | 119.97536 | 30405 ft | 457 kts | 149° |
| 2026-04-23 12:43 | 16.19434 | 119.99116 | 30205 ft | 458 kts | 149° |
| 2026-04-23 12:43 | 16.16635 | 120.00706 | 30006 ft | 459 kts | 149° |
| 2026-04-23 12:43 | 16.13850 | 120.02287 | 29806 ft | 460 kts | 149° |
| 2026-04-23 12:44 | 16.11026 | 120.03891 | 29605 ft | 461 kts | 149° |
| 2026-04-23 12:44 | 16.08216 | 120.05486 | 29406 ft | 462 kts | 149° |
| 2026-04-23 12:44 | 16.05394 | 120.07087 | 29205 ft | 463 kts | 149° |
| 2026-04-23 12:44 | 16.02581 | 120.08682 | 29006 ft | 464 kts | 149° |
| 2026-04-23 12:45 | 15.99759 | 120.10283 | 28807 ft | 465 kts | 149° |
| 2026-04-23 12:45 | 15.96969 | 120.11865 | 28611 ft | 465 kts | 149° |
| 2026-04-23 12:45 | 15.94112 | 120.13483 | 28410 ft | 466 kts | 149° |
| 2026-04-23 12:45 | 15.91281 | 120.15088 | 28210 ft | 467 kts | 149° |
| 2026-04-23 12:46 | 15.88432 | 120.16700 | 28009 ft | 468 kts | 149° |
| 2026-04-23 12:46 | 15.85580 | 120.18306 | 27808 ft | 469 kts | 149° |
| 2026-04-23 12:46 | 15.82761 | 120.19894 | 27612 ft | 470 kts | 149° |
| 2026-04-23 12:46 | 15.79918 | 120.21500 | 27418 ft | 478 kts | 149° |
| 2026-04-23 12:47 | 15.76965 | 120.23172 | 27216 ft | 480 kts | 149° |
| 2026-04-23 12:47 | 15.74047 | 120.24825 | 27016 ft | 479 kts | 149° |
| 2026-04-23 12:47 | 15.71178 | 120.26448 | 26830 ft | 479 kts | 149° |
| 2026-04-23 12:47 | 15.68247 | 120.28105 | 26507 ft | 477 kts | 149° |
| 2026-04-23 12:48 | 15.65312 | 120.29761 | 26301 ft | 476 kts | 149° |
| 2026-04-23 12:48 | 15.62428 | 120.31385 | 26150 ft | 476 kts | 149° |
| 2026-04-23 12:48 | 15.59575 | 120.32995 | 25952 ft | 475 kts | 149° |
| 2026-04-23 12:48 | 15.56636 | 120.34655 | 25749 ft | 474 kts | 149° |
| 2026-04-23 12:49 | 15.53753 | 120.36282 | 25548 ft | 473 kts | 149° |
| 2026-04-23 12:49 | 15.50882 | 120.37901 | 25348 ft | 472 kts | 149° |
| 2026-04-23 12:49 | 15.47976 | 120.39539 | 25146 ft | 471 kts | 149° |
| 2026-04-23 12:49 | 15.45090 | 120.41141 | 24945 ft | 471 kts | 150° |
| 2026-04-23 12:50 | 15.42222 | 120.42556 | 24748 ft | 471 kts | 154° |
| 2026-04-23 12:50 | 15.39159 | 120.43851 | 24545 ft | 471 kts | 157° |
| 2026-04-23 12:50 | 15.36045 | 120.44949 | 24343 ft | 471 kts | 160° |
| 2026-04-23 12:50 | 15.34162 | 120.45552 | 24224 ft | 471 kts | 161° |
| 2026-04-23 12:51 | 15.32687 | 120.46019 | 24126 ft | 470 kts | 161° |
| 2026-04-23 12:51 | 15.29538 | 120.47012 | 23899 ft | 469 kts | 161° |
| 2026-04-23 12:51 | 15.26409 | 120.47999 | 23673 ft | 468 kts | 161° |
| 2026-04-23 12:51 | 15.23266 | 120.48993 | 23448 ft | 467 kts | 161° |
| 2026-04-23 12:52 | 15.20180 | 120.49972 | 23223 ft | 466 kts | 161° |
| 2026-04-23 12:52 | 15.17110 | 120.50947 | 22933 ft | 465 kts | 161° |
| 2026-04-23 12:52 | 15.13992 | 120.51938 | 22600 ft | 463 kts | 161° |
| 2026-04-23 12:52 | 15.10952 | 120.52905 | 22224 ft | 461 kts | 161° |
| 2026-04-23 12:53 | 15.07885 | 120.53881 | 21847 ft | 459 kts | 161° |
| 2026-04-23 12:53 | 15.04854 | 120.54846 | 21471 ft | 457 kts | 161° |
| 2026-04-23 12:53 | 15.01848 | 120.55804 | 21094 ft | 452 kts | 161° |
| 2026-04-23 12:53 | 14.98918 | 120.56737 | 20923 ft | 437 kts | 162° |
| 2026-04-23 12:54 | 14.96059 | 120.57645 | 20665 ft | 428 kts | 162° |
| 2026-04-23 12:54 | 14.93260 | 120.58530 | 20176 ft | 423 kts | 162° |
| 2026-04-23 12:54 | 14.90456 | 120.59413 | 19545 ft | 422 kts | 163° |
| 2026-04-23 12:54 | 14.87619 | 120.60305 | 18902 ft | 421 kts | 163° |
| 2026-04-23 12:55 | 14.84832 | 120.61178 | 18275 ft | 419 kts | 163° |
| 2026-04-23 12:55 | 14.82057 | 120.62050 | 17648 ft | 418 kts | 163° |
| 2026-04-23 12:55 | 14.79292 | 120.62922 | 17023 ft | 416 kts | 163° |
| 2026-04-23 12:55 | 14.76533 | 120.63795 | 16392 ft | 414 kts | 163° |
| 2026-04-23 12:56 | 14.73778 | 120.64667 | 15762 ft | 412 kts | 163° |
| 2026-04-23 12:56 | 14.71093 | 120.65523 | 15156 ft | 410 kts | 163° |
| 2026-04-23 12:56 | 14.68342 | 120.66408 | 14747 ft | 402 kts | 163° |
| 2026-04-23 12:56 | 14.65699 | 120.67253 | 14459 ft | 391 kts | 164° |
| 2026-04-23 12:57 | 14.63164 | 120.68063 | 14307 ft | 377 kts | 162° |
| 2026-04-23 12:57 | 14.60782 | 120.69048 | 14105 ft | 367 kts | 155° |
| 2026-04-23 12:57 | 14.58579 | 120.70262 | 13880 ft | 357 kts | 151° |
| 2026-04-23 12:57 | 14.56467 | 120.71519 | 13666 ft | 347 kts | 150° |
| 2026-04-23 12:58 | 14.54414 | 120.72738 | 13510 ft | 336 kts | 153° |
| 2026-04-23 12:58 | 14.52224 | 120.73450 | 13207 ft | 325 kts | 180° |
| 2026-04-23 12:58 | 14.50047 | 120.73028 | 12873 ft | 313 kts | 209° |
| 2026-04-23 12:58 | 14.48432 | 120.71624 | 12503 ft | 303 kts | 239° |
| 2026-04-23 12:59 | 14.47695 | 120.69633 | 12143 ft | 295 kts | 259° |
| 2026-04-23 12:59 | 14.47152 | 120.67597 | 11764 ft | 294 kts | 251° |
| 2026-04-23 12:59 | 14.46363 | 120.65671 | 11392 ft | 292 kts | 248° |
| 2026-04-23 12:59 | 14.45546 | 120.63767 | 11020 ft | 290 kts | 248° |
| 2026-04-23 13:00 | 14.44716 | 120.61837 | 10573 ft | 291 kts | 248° |
| 2026-04-23 13:00 | 14.43889 | 120.59910 | 10127 ft | 292 kts | 248° |
| 2026-04-23 13:00 | 14.43080 | 120.58026 | 9781 ft | 289 kts | 248° |
| 2026-04-23 13:00 | 14.42246 | 120.56121 | 9375 ft | 289 kts | 243° |
| 2026-04-23 13:01 | 14.40958 | 120.54536 | 8983 ft | 291 kts | 217° |
| 2026-04-23 13:01 | 14.39229 | 120.53505 | 8758 ft | 285 kts | 209° |
| 2026-04-23 13:01 | 14.37469 | 120.52593 | 8482 ft | 280 kts | 208° |
| 2026-04-23 13:01 | 14.35722 | 120.51730 | 8200 ft | 276 kts | 202° |
| 2026-04-23 13:02 | 14.33844 | 120.51462 | 7907 ft | 274 kts | 173° |
| 2026-04-23 13:02 | 14.32076 | 120.52100 | 7637 ft | 270 kts | 150° |
| 2026-04-23 13:02 | 14.30477 | 120.53086 | 7369 ft | 267 kts | 148° |
| 2026-04-23 13:02 | 14.28915 | 120.54089 | 7102 ft | 264 kts | 148° |
| 2026-04-23 13:03 | 14.27389 | 120.55081 | 6901 ft | 258 kts | 144° |
| 2026-04-23 13:03 | 14.26224 | 120.56409 | 6666 ft | 250 kts | 114° |
| 2026-04-23 13:03 | 14.25874 | 120.58112 | 6457 ft | 240 kts | 81° |
| 2026-04-23 13:03 | 14.26383 | 120.59685 | 6272 ft | 228 kts | 57° |
| 2026-04-23 13:04 | 14.27230 | 120.61018 | 6112 ft | 216 kts | 54° |
| 2026-04-23 13:04 | 14.28049 | 120.62258 | 5898 ft | 206 kts | 54° |
| 2026-04-23 13:04 | 14.28879 | 120.63520 | 5650 ft | 220 kts | 54° |
| 2026-04-23 13:04 | 14.29742 | 120.64843 | 5369 ft | 219 kts | 54° |
| 2026-04-23 13:05 | 14.30590 | 120.66148 | 5097 ft | 217 kts | 54° |
| 2026-04-23 13:05 | 14.31431 | 120.67442 | 5027 ft | 216 kts | 55° |
| 2026-04-23 13:05 | 14.32268 | 120.68729 | 5008 ft | 214 kts | 55° |
| 2026-04-23 13:05 | 14.33058 | 120.70039 | 5003 ft | 215 kts | 58° |
| 2026-04-23 13:06 | 14.34585 | 120.72732 | 4987 ft | 215 kts | 62° |
| 2026-04-23 13:06 | 14.35308 | 120.74009 | 4981 ft | 203 kts | 62° |
| 2026-04-23 13:06 | 14.36011 | 120.75256 | 4995 ft | 201 kts | 62° |
| 2026-04-23 13:07 | 14.36725 | 120.76529 | 4992 ft | 202 kts | 62° |
| 2026-04-23 13:07 | 14.37420 | 120.77773 | 4875 ft | 205 kts | 61° |
| 2026-04-23 13:07 | 14.38132 | 120.79046 | 4645 ft | 203 kts | 62° |
| 2026-04-23 13:07 | 14.38830 | 120.80297 | 4374 ft | 199 kts | 62° |
| 2026-04-23 13:08 | 14.39527 | 120.81549 | 4116 ft | 204 kts | 62° |
| 2026-04-23 13:08 | 14.40241 | 120.82833 | 3837 ft | 202 kts | 62° |
| 2026-04-23 13:08 | 14.40934 | 120.84077 | 3578 ft | 197 kts | 63° |
| 2026-04-23 13:08 | 14.41617 | 120.85308 | 3319 ft | 196 kts | 63° |
| 2026-04-23 13:09 | 14.42271 | 120.86485 | 3053 ft | 194 kts | 62° |
| 2026-04-23 13:09 | 14.42957 | 120.87721 | 2795 ft | 200 kts | 62° |
| 2026-04-23 13:09 | 14.43607 | 120.88890 | 2554 ft | 197 kts | 62° |
| 2026-04-23 13:09 | 14.44274 | 120.90090 | 2288 ft | 189 kts | 62° |
| 2026-04-23 13:10 | 14.44902 | 120.91220 | 2029 ft | 177 kts | 63° |
| 2026-04-23 13:10 | 14.45487 | 120.92272 | 1816 ft | 169 kts | 63° |
| 2026-04-23 13:10 | 14.46077 | 120.93337 | 1588 ft | 168 kts | 63° |
| 2026-04-23 13:10 | 14.46662 | 120.94392 | 1365 ft | 167 kts | 63° |
| 2026-04-23 13:11 | 14.47222 | 120.95400 | 1146 ft | 155 kts | 62° |
| 2026-04-23 13:11 | 14.47727 | 120.96309 | 937 ft | 146 kts | 62° |
| 2026-04-23 13:11 | 14.48244 | 120.97241 | 756 ft | 151 kts | 63° |
| 2026-04-23 13:11 | 14.48759 | 120.98168 | 555 ft | 148 kts | 63° |
| 2026-04-23 13:12 | 14.49275 | 120.99098 | 356 ft | 153 kts | 63° |
| 2026-04-23 13:12 | 14.49791 | 121.00043 | 139 ft | 147 kts | 60° |
| 2026-04-23 13:12 | 14.50256 | 121.00890 | 85 ft | 116 kts | 62° |
| 2026-04-23 13:12 | 14.50575 | 121.01458 | 84 ft | 67 kts | 54° |
| 2026-04-23 13:13 | 14.50755 | 121.01700 | 84 ft | 26 kts | 45° |
| 2026-04-23 13:13 | 14.50830 | 121.01767 | 84 ft | 0 kts | 39° |
| 2026-04-23 13:14 | 14.50843 | 121.01776 | 84 ft | 13 kts | 31° |
| 2026-04-23 13:14 | 14.50940 | 121.01748 | 84 ft | 16 kts | 299° |
| 2026-04-23 13:15 | 14.50935 | 121.01655 | 84 ft | 13 kts | 243° |
| 2026-04-23 13:15 | 14.50893 | 121.01570 | 84 ft | 14 kts | 242° |
| 2026-04-23 13:15 | 14.50863 | 121.01514 | 84 ft | 0 kts | 240° |
| 2026-04-23 13:16 | 14.50859 | 121.01508 | 84 ft | 2 kts | 240° |
| 2026-04-23 13:16 | 14.50848 | 121.01488 | 84 ft | 6 kts | 240° |
| 2026-04-23 13:16 | 14.50810 | 121.01424 | 84 ft | 13 kts | 238° |
| 2026-04-23 13:17 | 14.50756 | 121.01345 | 84 ft | 14 kts | 231° |
| 2026-04-23 13:17 | 14.50689 | 121.01313 | 84 ft | 11 kts | 205° |
| 2026-04-23 13:17 | 14.50635 | 121.01254 | 84 ft | 14 kts | 238° |
| 2026-04-23 13:17 | 14.50571 | 121.01146 | 84 ft | 19 kts | 240° |
| 2026-04-23 13:18 | 14.50505 | 121.01030 | 84 ft | 19 kts | 239° |
| 2026-04-23 13:18 | 14.50437 | 121.00912 | 84 ft | 19 kts | 241° |
| 2026-04-23 13:18 | 14.50370 | 121.00793 | 84 ft | 20 kts | 238° |
| 2026-04-23 13:18 | 14.50308 | 121.00669 | 84 ft | 19 kts | 243° |
| 2026-04-23 13:19 | 14.50242 | 121.00547 | 84 ft | 20 kts | 238° |
| 2026-04-23 13:19 | 14.50177 | 121.00435 | 84 ft | 16 kts | 238° |
| 2026-04-23 13:19 | 14.50170 | 121.00339 | 84 ft | 11 kts | 316° |
| 2026-04-23 13:19 | 14.50234 | 121.00291 | 84 ft | 10 kts | 342° |
| 2026-04-23 13:20 | 14.50306 | 121.00276 | 84 ft | 11 kts | 355° |
| 2026-04-23 13:20 | 14.50378 | 121.00284 | 84 ft | 11 kts | 7° |
| 2026-04-23 13:20 | 14.50449 | 121.00293 | 84 ft | 8 kts | 7° |
| 2026-04-23 13:20 | 14.50512 | 121.00308 | 84 ft | 10 kts | 25° |
| 2026-04-23 13:21 | 14.50553 | 121.00365 | 84 ft | 10 kts | 80° |
| 2026-04-23 13:21 | 14.50536 | 121.00412 | 84 ft | 0 kts | 109° |
| 2026-04-23 13:21 | 14.50534 | 121.00419 | 84 ft | 2 kts | 109° |
| 2026-04-23 13:21 | 14.50531 | 121.00428 | 84 ft | 0 kts | 109° |